Time;durP1;ratioP1;P1;durP2;ratioP2;P2;SDS_P1;SDS_P2;PMS_P1;PMS_P2;Temp;Humidity;BMP_temperature;BMP_pressure;BME280_temperature;BME280_humidity;BME280_pressure;Samples;Min_cycle;Max_cycle;Signal;HPM_P1;HPM_P2
2024/01/04 00:00:11;;;;;;;35.42;10.48;;;;;;;;;;4986503;28;20018;-51
2024/01/04 00:02:38;;;;;;;32.97;10.77;;;;;;;;;;5003536;28;20358;-49
2024/01/04 00:05:05;;;;;;;35.22;11.15;;;;;;;;;;5001879;28;20102;-51
2024/01/04 00:07:31;;;;;;;33.40;12.90;;;;;;;;;;5001384;28;20022;-51
2024/01/04 00:09:58;;;;;;;41.40;17.42;;;;;;;;;;5000498;28;20034;-54
2024/01/04 00:12:24;;;;;;;25.67;13.23;;;;;;;;;;5002455;28;20037;-48
2024/01/04 00:14:51;;;;;;;39.45;11.48;;;;;;;;;;5001314;28;20206;-52
2024/01/04 00:17:18;;;;;;;25.73;9.18;;;;;;;;;;4997454;28;20022;-56
2024/01/04 00:19:45;;;;;;;25.83;8.90;;;;;;;;;;5003210;28;20022;-54
2024/01/04 00:22:11;;;;;;;22.58;8.60;;;;;;;;;;5000807;28;20080;-47
2024/01/04 00:24:38;;;;;;;20.58;8.40;;;;;;;;;;5002506;28;20077;-55
2024/01/04 00:27:04;;;;;;;20.48;8.05;;;;;;;;;;5005056;28;20314;-57
2024/01/04 00:29:31;;;;;;;16.55;7.20;;;;;;;;;;4981022;28;20025;-53
2024/01/04 00:31:58;;;;;;;19.85;7.70;;;;;;;;;;4998428;28;20033;-54
2024/01/04 00:34:24;;;;;;;17.20;7.15;;;;;;;;;;5001518;28;20022;-58
2024/01/04 00:36:51;;;;;;;19.27;7.63;;;;;;;;;;4993238;28;20053;-56
2024/01/04 00:39:18;;;;;;;14.88;6.85;;;;;;;;;;4997430;28;20011;-54
2024/01/04 00:41:44;;;;;;;15.70;7.18;;;;;;;;;;4998618;28;20274;-57
2024/01/04 00:44:11;;;;;;;13.88;6.75;;;;;;;;;;4998254;28;20321;-56
2024/01/04 00:46:38;;;;;;;13.45;6.53;;;;;;;;;;5013461;28;20029;-54
2024/01/04 00:49:04;;;;;;;19.85;6.60;;;;;;;;;;5016577;28;20088;-55
2024/01/04 00:51:31;;;;;;;11.77;6.20;;;;;;;;;;5003417;28;21236;-54
2024/01/04 00:53:57;;;;;;;18.92;6.75;;;;;;;;;;4997906;28;20019;-53
2024/01/04 00:56:24;;;;;;;11.25;6.35;;;;;;;;;;4996740;28;20019;-53
2024/01/04 00:58:50;;;;;;;18.77;6.20;;;;;;;;;;4989161;28;20022;-54
2024/01/04 01:01:17;;;;;;;18.00;6.32;;;;;;;;;;4987334;28;20046;-55
2024/01/04 01:03:44;;;;;;;14.68;6.07;;;;;;;;;;4997703;28;20214;-57
2024/01/04 01:06:11;;;;;;;13.02;6.07;;;;;;;;;;5012529;28;20026;-59
2024/01/04 01:08:38;;;;;;;8.90;5.95;;;;;;;;;;5016027;28;20022;-57
2024/01/04 01:11:05;;;;;;;8.15;6.28;;;;;;;;;;5024442;28;20085;-56
2024/01/04 01:13:31;;;;;;;9.40;6.00;;;;;;;;;;4992646;28;20022;-56
2024/01/04 01:15:58;;;;;;;11.23;6.65;;;;;;;;;;4988646;28;20027;-59
2024/01/04 01:18:25;;;;;;;12.48;6.00;;;;;;;;;;5000444;28;20091;-57
2024/01/04 01:20:51;;;;;;;10.10;5.85;;;;;;;;;;5009450;28;20077;-53
2024/01/04 01:23:18;;;;;;;15.32;6.90;;;;;;;;;;4997684;28;20023;-54
2024/01/04 01:25:44;;;;;;;39.00;8.82;;;;;;;;;;5004025;28;20058;-56
2024/01/04 01:28:11;;;;;;;23.00;6.93;;;;;;;;;;5005821;28;20023;-56
2024/01/04 01:30:37;;;;;;;23.45;6.57;;;;;;;;;;5006083;28;20045;-55
2024/01/04 01:33:04;;;;;;;20.10;7.13;;;;;;;;;;5001687;28;20026;-58
2024/01/04 01:35:31;;;;;;;15.85;6.50;;;;;;;;;;4978310;28;20046;-57
2024/01/04 01:37:58;;;;;;;15.93;5.95;;;;;;;;;;4986213;28;20033;-55
2024/01/04 01:40:24;;;;;;;15.00;6.25;;;;;;;;;;4985969;28;20353;-54
2024/01/04 01:42:51;;;;;;;14.15;7.28;;;;;;;;;;4973615;28;20320;-55
2024/01/04 01:45:18;;;;;;;11.55;7.35;;;;;;;;;;4990508;28;20057;-57
2024/01/04 01:47:48;;;;;;;16.10;7.60;;;;;;;;;;4997490;28;20038;-54
2024/01/04 01:50:15;;;;;;;39.70;8.40;;;;;;;;;;5000786;28;20022;-57
2024/01/04 01:52:47;;;;;;;17.05;6.60;;;;;;;;;;4995521;28;20030;-57
2024/01/04 01:55:15;;;;;;;13.88;6.57;;;;;;;;;;4971451;28;20019;-57
2024/01/04 01:57:42;;;;;;;14.65;6.32;;;;;;;;;;4997217;28;20033;-57
2024/01/04 02:00:09;;;;;;;10.95;6.63;;;;;;;;;;5005890;28;20024;-56
2024/01/04 02:02:36;;;;;;;15.07;6.72;;;;;;;;;;5006042;28;20191;-58
2024/01/04 02:05:02;;;;;;;19.42;6.82;;;;;;;;;;5005918;28;20026;-57
2024/01/04 02:07:29;;;;;;;14.82;6.35;;;;;;;;;;5005690;28;20033;-57
2024/01/04 02:09:56;;;;;;;9.02;6.00;;;;;;;;;;5005741;28;20069;-57
2024/01/04 02:12:23;;;;;;;7.93;6.10;;;;;;;;;;5006170;28;20136;-57
2024/01/04 02:14:53;;;;;;;11.75;6.10;;;;;;;;;;4981957;28;20086;-61
2024/01/04 02:17:20;;;;;;;11.80;8.40;;;;;;;;;;4997905;28;20098;-51
2024/01/04 02:19:47;;;;;;;14.35;12.93;;;;;;;;;;5005521;28;20018;-54
2024/01/04 02:22:14;;;;;;;10.82;6.80;;;;;;;;;;5005836;28;20041;-56
2024/01/04 02:24:41;;;;;;;7.55;6.10;;;;;;;;;;5004828;28;20042;-58
2024/01/04 02:27:08;;;;;;;11.73;6.38;;;;;;;;;;5001328;28;20097;-52
2024/01/04 02:29:34;;;;;;;8.90;5.85;;;;;;;;;;4996665;28;20022;-53
2024/01/04 02:32:01;;;;;;;8.52;6.30;;;;;;;;;;5005509;28;20034;-54
2024/01/04 02:34:27;;;;;;;13.02;6.63;;;;;;;;;;5005216;28;20306;-54
2024/01/04 02:36:54;;;;;;;10.68;6.28;;;;;;;;;;4996844;28;20030;-56
2024/01/04 02:39:20;;;;;;;9.15;6.20;;;;;;;;;;4992568;28;20065;-60
2024/01/04 02:41:47;;;;;;;10.88;6.15;;;;;;;;;;4985375;28;20023;-55
2024/01/04 02:44:14;;;;;;;12.77;6.78;;;;;;;;;;4985482;28;20018;-59
2024/01/04 02:46:40;;;;;;;8.48;6.38;;;;;;;;;;4985731;28;20034;-52
2024/01/04 02:49:07;;;;;;;9.15;6.43;;;;;;;;;;4985969;28;20026;-52
2024/01/04 02:51:34;;;;;;;12.40;6.47;;;;;;;;;;5005851;28;20563;-53
2024/01/04 02:54:00;;;;;;;11.77;6.25;;;;;;;;;;5014460;28;20018;-55
2024/01/04 02:56:27;;;;;;;9.38;6.30;;;;;;;;;;5005384;28;20049;-54
2024/01/04 02:58:54;;;;;;;11.90;6.05;;;;;;;;;;4994115;28;20246;-54
2024/01/04 03:01:21;;;;;;;10.15;5.72;;;;;;;;;;4984976;28;20037;-51
2024/01/04 03:03:51;;;;;;;10.43;6.20;;;;;;;;;;4985270;28;20093;-50
2024/01/04 03:06:24;;;;;;;7.75;6.18;;;;;;;;;;4987787;28;20310;-50
2024/01/04 03:08:51;;;;;;;8.15;5.93;;;;;;;;;;4993710;28;20085;-52
2024/01/04 03:11:18;;;;;;;8.35;5.90;;;;;;;;;;4984977;28;20037;-53
2024/01/04 03:13:46;;;;;;;8.65;5.97;;;;;;;;;;4989703;28;20026;-51
2024/01/04 03:16:15;;;;;;;8.60;5.97;;;;;;;;;;4990367;28;20027;-53
2024/01/04 03:18:41;;;;;;;12.68;6.70;;;;;;;;;;4984944;28;20011;-53
2024/01/04 03:21:08;;;;;;;7.20;5.78;;;;;;;;;;4985169;28;20053;-55
2024/01/04 03:23:35;;;;;;;7.95;5.53;;;;;;;;;;4984934;28;20107;-53
2024/01/04 03:26:02;;;;;;;8.45;6.05;;;;;;;;;;4984619;28;20034;-56
2024/01/04 03:28:28;;;;;;;8.32;6.50;;;;;;;;;;4984881;28;20022;-50
2024/01/04 03:30:55;;;;;;;7.63;5.65;;;;;;;;;;4994703;28;20038;-59
2024/01/04 03:33:22;;;;;;;9.05;5.60;;;;;;;;;;4995590;28;20029;-54
2024/01/04 03:35:48;;;;;;;9.32;5.75;;;;;;;;;;4984498;28;20050;-52
2024/01/04 03:38:15;;;;;;;7.28;5.22;;;;;;;;;;4986583;28;20057;-54
2024/01/04 03:40:41;;;;;;;6.40;5.57;;;;;;;;;;4997580;28;20382;-51
2024/01/04 03:43:08;;;;;;;6.60;5.45;;;;;;;;;;5012993;28;20209;-51
2024/01/04 03:45:35;;;;;;;7.32;5.18;;;;;;;;;;5011704;28;20314;-54
2024/01/04 03:48:02;;;;;;;5.60;5.10;;;;;;;;;;5008723;28;20026;-53
2024/01/04 03:50:28;;;;;;;7.28;5.45;;;;;;;;;;5007046;28;20093;-54
2024/01/04 03:52:55;;;;;;;8.27;5.03;;;;;;;;;;5011752;28;20320;-53
2024/01/04 03:55:22;;;;;;;5.78;5.10;;;;;;;;;;5007295;28;20029;-54
2024/01/04 03:57:50;;;;;;;5.45;4.95;;;;;;;;;;5013667;28;20337;-56
2024/01/04 04:00:17;;;;;;;8.52;5.25;;;;;;;;;;5009075;28;20117;-51
2024/01/04 04:02:44;;;;;;;6.10;5.13;;;;;;;;;;5003852;28;20030;-55
2024/01/04 04:05:11;;;;;;;7.57;5.47;;;;;;;;;;5003960;28;20041;-51
2024/01/04 04:07:37;;;;;;;8.25;4.85;;;;;;;;;;5004536;28;20034;-53
2024/01/04 04:10:04;;;;;;;6.22;5.20;;;;;;;;;;5003852;28;20191;-55
2024/01/04 04:12:31;;;;;;;6.50;5.03;;;;;;;;;;5002776;28;20026;-54
2024/01/04 04:14:57;;;;;;;6.35;4.68;;;;;;;;;;5016538;28;20201;-56
2024/01/04 04:17:24;;;;;;;6.88;5.18;;;;;;;;;;5004729;28;20030;-54
2024/01/04 04:19:51;;;;;;;5.57;4.60;;;;;;;;;;4996887;28;20061;-54
2024/01/04 04:22:18;;;;;;;6.28;4.70;;;;;;;;;;4999884;28;20037;-55
2024/01/04 04:24:44;;;;;;;6.47;4.60;;;;;;;;;;4996109;28;20369;-58
2024/01/04 04:27:11;;;;;;;5.72;5.00;;;;;;;;;;4988760;28;20030;-54
2024/01/04 04:29:41;;;;;;;6.88;4.47;;;;;;;;;;4987940;28;20074;-55
2024/01/04 04:32:08;;;;;;;5.47;4.88;;;;;;;;;;4988158;28;20038;-54
2024/01/04 04:34:35;;;;;;;9.77;5.07;;;;;;;;;;4987889;28;20184;-59
2024/01/04 04:37:03;;;;;;;5.78;4.68;;;;;;;;;;4988549;28;20314;-54
2024/01/04 04:39:29;;;;;;;12.13;5.00;;;;;;;;;;4987767;28;20029;-54
2024/01/04 04:41:56;;;;;;;5.60;4.70;;;;;;;;;;5000074;28;20206;-55
2024/01/04 04:44:23;;;;;;;7.28;5.03;;;;;;;;;;5007573;28;20237;-54
2024/01/04 04:46:49;;;;;;;10.25;5.18;;;;;;;;;;5007316;28;20098;-53
2024/01/04 04:49:16;;;;;;;6.78;4.75;;;;;;;;;;5004856;28;20131;-54
2024/01/04 04:51:48;;;;;;;6.78;4.55;;;;;;;;;;5025890;28;20034;-54
2024/01/04 04:54:14;;;;;;;;;;;;;;;;;;5026993;28;20209;-53
2024/01/04 04:56:41;;;;;;;5.90;4.88;;;;;;;;;;5026615;28;19981;-53
2024/01/04 04:59:08;;;;;;;5.90;4.97;;;;;;;;;;5026819;28;20222;-53
2024/01/04 05:01:35;;;;;;;6.32;4.50;;;;;;;;;;5016379;28;20030;-57
2024/01/04 05:04:02;;;;;;;5.45;4.80;;;;;;;;;;5007006;28;20026;-51
2024/01/04 05:06:28;;;;;;;8.23;4.82;;;;;;;;;;5006966;28;20030;-60
2024/01/04 05:08:55;;;;;;;5.43;4.43;;;;;;;;;;5006651;28;20316;-60
2024/01/04 05:11:22;;;;;;;5.03;4.53;;;;;;;;;;5019841;28;20038;-55
2024/01/04 05:13:48;;;;;;;10.20;4.72;;;;;;;;;;5026293;28;20021;-53
2024/01/04 05:16:15;;;;;;;6.35;4.60;;;;;;;;;;5026359;28;20317;-53
2024/01/04 05:18:42;;;;;;;5.20;4.70;;;;;;;;;;5026265;28;20085;-56
2024/01/04 05:21:09;;;;;;;5.95;4.80;;;;;;;;;;5026376;28;20034;-55
2024/01/04 05:23:35;;;;;;;6.45;4.80;;;;;;;;;;5025644;28;20080;-53
2024/01/04 05:26:02;;;;;;;6.18;5.38;;;;;;;;;;5026117;28;20097;-52
2024/01/04 05:28:29;;;;;;;7.20;4.90;;;;;;;;;;5026170;28;20272;-53
2024/01/04 05:30:56;;;;;;;5.45;4.68;;;;;;;;;;5026076;28;20026;-48
2024/01/04 05:33:22;;;;;;;5.53;4.63;;;;;;;;;;5025805;28;20041;-49
2024/01/04 05:35:51;;;;;;;5.00;4.43;;;;;;;;;;5026376;28;20045;-57
2024/01/04 05:38:18;;;;;;;6.53;4.47;;;;;;;;;;5025803;28;20026;-54
2024/01/04 05:40:44;;;;;;;6.90;4.90;;;;;;;;;;5025651;28;20068;-55
2024/01/04 05:43:11;;;;;;;4.97;4.45;;;;;;;;;;5025932;28;20183;-53
2024/01/04 05:45:37;;;;;;;6.60;4.93;;;;;;;;;;5026154;28;20045;-53
2024/01/04 05:48:04;;;;;;;5.43;4.75;;;;;;;;;;5025630;28;20052;-49
2024/01/04 05:50:31;;;;;;;5.13;4.53;;;;;;;;;;5025757;28;20028;-55
2024/01/04 05:52:58;;;;;;;6.90;4.50;;;;;;;;;;5025590;28;20029;-49
2024/01/04 05:55:24;;;;;;;7.40;4.45;;;;;;;;;;5025107;28;20022;-51
2024/01/04 05:57:51;;;;;;;7.43;4.68;;;;;;;;;;5025557;28;20085;-53
2024/01/04 06:00:18;;;;;;;5.47;4.85;;;;;;;;;;5025587;28;20049;-56
2024/01/04 06:02:44;;;;;;;6.05;4.85;;;;;;;;;;5025237;28;20246;-56
2024/01/04 06:05:11;;;;;;;7.05;4.82;;;;;;;;;;5025465;28;20021;-51
2024/01/04 06:07:37;;;;;;;6.18;4.68;;;;;;;;;;5025851;28;20053;-54
2024/01/04 06:10:04;;;;;;;5.40;4.47;;;;;;;;;;5014363;28;20057;-54
2024/01/04 06:12:31;;;;;;;6.63;4.65;;;;;;;;;;5005918;28;20210;-50
2024/01/04 06:14:57;;;;;;;5.43;4.90;;;;;;;;;;4999682;28;20014;-52
2024/01/04 06:17:24;;;;;;;6.05;5.03;;;;;;;;;;5005682;28;20026;-49
2024/01/04 06:19:51;;;;;;;7.18;4.90;;;;;;;;;;5005520;28;20042;-52
2024/01/04 06:22:17;;;;;;;6.65;4.68;;;;;;;;;;5005830;28;20097;-56
2024/01/04 06:24:46;;;;;;;7.32;5.00;;;;;;;;;;5005185;28;20054;-59
2024/01/04 06:27:12;;;;;;;6.93;4.70;;;;;;;;;;5005709;28;20061;-60
2024/01/04 06:29:39;;;;;;;6.50;4.93;;;;;;;;;;5005319;28;20242;-57
2024/01/04 06:32:08;;;;;;;7.75;5.15;;;;;;;;;;5005324;28;20041;-54
2024/01/04 06:34:34;;;;;;;7.15;4.63;;;;;;;;;;5005186;28;20073;-53
2024/01/04 06:37:01;;;;;;;5.65;4.60;;;;;;;;;;5004826;28;20022;-52
2024/01/04 06:39:28;;;;;;;4.78;4.07;;;;;;;;;;5005083;28;20341;-55
2024/01/04 06:41:55;;;;;;;6.07;4.38;;;;;;;;;;5005008;28;20034;-58
2024/01/04 06:44:22;;;;;;;7.88;5.00;;;;;;;;;;5005223;28;20022;-54
2024/01/04 06:46:49;;;;;;;5.35;4.53;;;;;;;;;;5004968;28;20322;-51
2024/01/04 06:49:15;;;;;;;5.28;4.75;;;;;;;;;;5005096;28;20026;-53
2024/01/04 06:51:42;;;;;;;5.15;4.65;;;;;;;;;;5004735;28;20101;-55
2024/01/04 06:54:08;;;;;;;5.07;4.38;;;;;;;;;;5004927;28;20053;-52
2024/01/04 06:56:35;;;;;;;5.28;4.15;;;;;;;;;;5004931;28;20423;-56
2024/01/04 06:59:03;;;;;;;4.63;4.18;;;;;;;;;;4994632;28;20030;-60
2024/01/04 07:01:30;;;;;;;7.65;4.30;;;;;;;;;;4985402;28;20054;-61
2024/01/04 07:03:57;;;;;;;3.95;3.55;;;;;;;;;;4985413;28;20030;-54
2024/01/04 07:06:24;;;;;;;5.57;3.58;;;;;;;;;;4985337;28;20031;-57
2024/01/04 07:08:50;;;;;;;4.65;4.00;;;;;;;;;;4985223;28;20086;-58
2024/01/04 07:11:17;;;;;;;7.47;3.80;;;;;;;;;;4985234;28;20037;-55
2024/01/04 07:13:43;;;;;;;5.90;3.92;;;;;;;;;;4985338;28;20070;-53
2024/01/04 07:16:10;;;;;;;5.22;3.70;;;;;;;;;;4985415;28;20302;-56
2024/01/04 07:18:37;;;;;;;6.20;4.03;;;;;;;;;;4985079;28;20026;-58
2024/01/04 07:21:03;;;;;;;4.97;3.83;;;;;;;;;;4985114;28;20130;-57
2024/01/04 07:23:30;;;;;;;6.13;3.70;;;;;;;;;;4984870;28;20042;-57
2024/01/04 07:25:57;;;;;;;5.30;3.83;;;;;;;;;;4984646;28;20073;-55
2024/01/04 07:28:24;;;;;;;4.93;3.80;;;;;;;;;;4985082;28;20039;-58
2024/01/04 07:30:51;;;;;;;5.03;4.18;;;;;;;;;;4984834;28;20238;-54
2024/01/04 07:33:18;;;;;;;7.28;4.25;;;;;;;;;;4984785;28;20026;-55
2024/01/04 07:35:45;;;;;;;4.35;3.95;;;;;;;;;;4984753;28;20027;-58
2024/01/04 07:38:12;;;;;;;5.30;3.90;;;;;;;;;;4984908;28;20018;-54
2024/01/04 07:40:38;;;;;;;6.00;4.38;;;;;;;;;;4984616;28;20022;-55
2024/01/04 07:43:05;;;;;;;5.13;4.07;;;;;;;;;;4984833;28;20303;-56
2024/01/04 07:45:33;;;;;;;5.70;4.10;;;;;;;;;;4984656;28;20027;-55
2024/01/04 07:48:00;;;;;;;5.25;4.05;;;;;;;;;;4987559;28;20019;-49
2024/01/04 07:50:26;;;;;;;4.78;3.75;;;;;;;;;;4988599;28;20019;-51
2024/01/04 07:52:53;;;;;;;5.20;4.13;;;;;;;;;;4988825;28;20030;-51
2024/01/04 07:55:20;;;;;;;5.28;3.72;;;;;;;;;;4988463;28;20023;-55
2024/01/04 07:57:47;;;;;;;5.15;3.92;;;;;;;;;;4988758;28;20416;-53
2024/01/04 08:00:14;;;;;;;3.92;3.60;;;;;;;;;;4988705;28;20019;-53
2024/01/04 08:02:40;;;;;;;5.15;3.75;;;;;;;;;;4988728;28;20031;-56
2024/01/04 08:05:07;;;;;;;6.78;3.92;;;;;;;;;;4988680;28;20022;-55
2024/01/04 08:07:34;;;;;;;4.78;3.58;;;;;;;;;;4988844;28;20346;-58
2024/01/04 08:10:01;;;;;;;6.75;3.65;;;;;;;;;;4988140;28;20315;-49
2024/01/04 08:12:27;;;;;;;4.20;3.38;;;;;;;;;;4988236;28;20322;-48
2024/01/04 08:14:54;;;;;;;3.70;3.40;;;;;;;;;;4988610;28;20045;-52
2024/01/04 08:17:21;;;;;;;5.78;3.75;;;;;;;;;;4988533;28;20023;-56
2024/01/04 08:19:47;;;;;;;4.70;3.65;;;;;;;;;;4988546;28;20303;-53
2024/01/04 08:22:14;;;;;;;4.63;3.80;;;;;;;;;;4988444;28;20214;-56
2024/01/04 08:24:42;;;;;;;6.85;3.47;;;;;;;;;;4987967;28;20105;-53
2024/01/04 08:27:08;;;;;;;5.53;3.60;;;;;;;;;;4988491;28;20038;-54
2024/01/04 08:29:35;;;;;;;4.45;3.95;;;;;;;;;;4988177;28;20023;-53
2024/01/04 08:32:02;;;;;;;5.68;3.42;;;;;;;;;;4988419;28;20039;-56
2024/01/04 08:34:29;;;;;;;6.78;3.60;;;;;;;;;;4988614;28;20182;-53
2024/01/04 08:36:55;;;;;;;4.57;3.45;;;;;;;;;;4988100;28;20026;-57
2024/01/04 08:39:22;;;;;;;7.55;3.20;;;;;;;;;;4987839;28;20022;-53
2024/01/04 08:41:49;;;;;;;4.03;3.40;;;;;;;;;;4987967;28;20081;-54
2024/01/04 08:44:15;;;;;;;3.47;3.17;;;;;;;;;;4987761;28;20094;-58
2024/01/04 08:46:42;;;;;;;5.30;3.55;;;;;;;;;;4988032;28;20042;-54
2024/01/04 08:49:08;;;;;;;3.78;3.38;;;;;;;;;;4987925;28;20205;-61
2024/01/04 08:51:35;;;;;;;5.00;3.80;;;;;;;;;;4987829;28;20373;-56
2024/01/04 08:54:02;;;;;;;3.65;3.17;;;;;;;;;;4987857;28;20022;-51
2024/01/04 08:56:28;;;;;;;5.45;3.35;;;;;;;;;;4987719;28;20086;-53
2024/01/04 08:58:55;;;;;;;4.22;3.83;;;;;;;;;;4986831;28;20195;-52
2024/01/04 09:01:21;;;;;;;6.43;3.53;;;;;;;;;;4987722;28;20183;-53
2024/01/04 09:03:49;;;;;;;4.00;3.40;;;;;;;;;;4987469;28;20078;-50
2024/01/04 09:06:15;;;;;;;5.07;3.55;;;;;;;;;;4987498;28;20031;-52
2024/01/04 09:08:42;;;;;;;5.05;3.70;;;;;;;;;;4987341;28;20029;-56
2024/01/04 09:11:08;;;;;;;4.78;3.78;;;;;;;;;;4987192;28;20050;-56
2024/01/04 09:13:35;;;;;;;5.32;3.45;;;;;;;;;;4987194;28;20334;-51
2024/01/04 09:16:02;;;;;;;4.95;3.42;;;;;;;;;;4987473;28;20250;-53
2024/01/04 09:18:29;;;;;;;4.10;3.45;;;;;;;;;;4987066;28;20019;-54
2024/01/04 09:20:55;;;;;;;5.28;3.13;;;;;;;;;;4987027;28;20341;-58
2024/01/04 09:23:22;;;;;;;4.80;3.55;;;;;;;;;;4987059;28;20432;-48
2024/01/04 09:25:48;;;;;;;3.60;3.30;;;;;;;;;;4986797;28;20026;-48
2024/01/04 09:28:15;;;;;;;4.85;3.53;;;;;;;;;;4987070;28;20314;-55
2024/01/04 09:30:42;;;;;;;6.72;3.10;;;;;;;;;;4986783;28;20041;-51
2024/01/04 09:33:08;;;;;;;6.25;3.25;;;;;;;;;;4987165;28;20246;-53
2024/01/04 09:35:35;;;;;;;6.47;2.97;;;;;;;;;;4987035;28;20019;-50
2024/01/04 09:38:01;;;;;;;5.43;3.30;;;;;;;;;;4986906;28;20122;-56
2024/01/04 09:40:28;;;;;;;3.85;3.10;;;;;;;;;;4986497;28;20085;-48
2024/01/04 09:42:56;;;;;;;4.55;3.20;;;;;;;;;;4986731;28;20069;-57
2024/01/04 09:45:23;;;;;;;5.78;3.30;;;;;;;;;;4986458;28;20215;-54
2024/01/04 09:47:50;;;;;;;3.65;3.08;;;;;;;;;;4986540;28;20018;-52
2024/01/04 09:50:18;;;;;;;6.50;3.42;;;;;;;;;;4986522;28;20082;-54
2024/01/04 09:52:44;;;;;;;4.32;3.17;;;;;;;;;;4986561;28;20042;-54
2024/01/04 09:55:12;;;;;;;3.75;3.05;;;;;;;;;;4986563;28;20085;-56
2024/01/04 09:57:38;;;;;;;3.22;2.92;;;;;;;;;;4986702;28;20039;-54
2024/01/04 10:00:05;;;;;;;4.25;3.03;;;;;;;;;;4986448;28;20022;-55
2024/01/04 10:02:33;;;;;;;3.15;2.85;;;;;;;;;;4986556;28;20238;-51
2024/01/04 10:05:01;;;;;;;4.80;2.80;;;;;;;;;;4986431;28;20161;-54
2024/01/04 10:07:30;;;;;;;3.53;2.72;;;;;;;;;;4986614;28;20108;-53
2024/01/04 10:10:00;;;;;;;4.32;2.95;;;;;;;;;;4985542;28;20165;-55
2024/01/04 10:12:36;;;;;;;4.72;2.90;;;;;;;;;;4986081;28;20322;-56
2024/01/04 10:15:03;;;;;;;4.95;2.95;;;;;;;;;;4986126;28;20023;-53
2024/01/04 10:17:32;;;;;;;4.03;2.70;;;;;;;;;;4986343;28;20037;-52
2024/01/04 10:19:58;;;;;;;3.28;2.47;;;;;;;;;;4985974;28;20022;-57
2024/01/04 10:22:25;;;;;;;3.10;2.67;;;;;;;;;;4986443;28;20031;-54
2024/01/04 10:24:54;;;;;;;7.85;3.00;;;;;;;;;;4985612;28;20050;-53
2024/01/04 10:27:22;;;;;;;5.85;2.58;;;;;;;;;;4986260;28;20031;-53
2024/01/04 10:29:51;;;;;;;3.78;2.50;;;;;;;;;;4985925;28;20041;-51
2024/01/04 10:32:18;;;;;;;2.60;2.40;;;;;;;;;;4986045;28;20038;-53
2024/01/04 10:34:45;;;;;;;6.50;2.70;;;;;;;;;;4985792;28;20018;-56
2024/01/04 10:37:17;;;;;;;3.42;2.60;;;;;;;;;;4986169;28;20030;-53
2024/01/04 10:39:46;;;;;;;;;;;;;;;;;;4985973;28;20372;-54
2024/01/04 10:42:13;;;;;;;4.68;2.80;;;;;;;;;;4985220;28;20008;-57
2024/01/04 10:44:40;;;;;;;4.68;2.72;;;;;;;;;;4985570;28;20023;-53
2024/01/04 10:47:09;;;;;;;5.97;2.60;;;;;;;;;;4985911;28;20065;-57
2024/01/04 10:49:42;;;;;;;7.13;3.60;;;;;;;;;;4985815;28;20330;-55
2024/01/04 10:52:12;;;;;;;8.02;3.67;;;;;;;;;;4985434;28;20045;-52
2024/01/04 10:54:39;;;;;;;9.70;3.90;;;;;;;;;;4985622;28;20046;-53
2024/01/04 10:57:05;;;;;;;8.38;3.75;;;;;;;;;;4985501;28;20203;-53
2024/01/04 10:59:33;;;;;;;7.07;3.13;;;;;;;;;;4985329;28;20096;-52
2024/01/04 11:02:00;;;;;;;11.25;3.47;;;;;;;;;;4985576;28;20035;-52
2024/01/04 11:04:27;;;;;;;11.77;3.45;;;;;;;;;;4985306;28;20244;-51
2024/01/04 11:06:54;;;;;;;24.98;4.25;;;;;;;;;;4985140;28;20027;-54
2024/01/04 11:09:20;;;;;;;74.57;13.18;;;;;;;;;;4985223;28;20034;-53
2024/01/04 11:11:51;;;;;;;26.65;6.18;;;;;;;;;;4985319;28;20203;-56
2024/01/04 11:14:21;;;;;;;19.75;5.28;;;;;;;;;;4985171;28;20045;-53
2024/01/04 11:16:50;;;;;;;15.65;5.18;;;;;;;;;;4985489;28;20051;-58
2024/01/04 11:19:23;;;;;;;17.98;5.10;;;;;;;;;;4967879;28;20019;-53
2024/01/04 11:22:00;;;;;;;16.15;4.70;;;;;;;;;;4984970;28;20043;-58
2024/01/04 11:24:37;;;;;;;12.73;4.05;;;;;;;;;;4984922;28;20058;-58
2024/01/04 11:27:06;;;;;;;10.50;4.10;;;;;;;;;;4983468;28;20258;-58
2024/01/04 11:29:33;;;;;;;7.15;3.60;;;;;;;;;;4983245;28;20035;-59
2024/01/04 11:32:00;;;;;;;11.52;3.63;;;;;;;;;;4983327;28;20339;-55
2024/01/04 11:34:26;;;;;;;7.60;3.58;;;;;;;;;;4983256;28;20014;-52
2024/01/04 11:37:08;;;;;;;9.85;3.80;;;;;;;;;;4983463;28;20131;-54
2024/01/04 11:39:35;;;;;;;17.35;3.92;;;;;;;;;;4983482;28;20316;-53
2024/01/04 11:42:13;;;;;;;8.13;3.83;;;;;;;;;;4984021;28;20030;-53
2024/01/04 11:44:42;;;;;;;11.73;3.38;;;;;;;;;;4984553;28;20050;-52
2024/01/04 11:47:14;;;;;;;12.00;3.35;;;;;;;;;;4985413;28;20026;-52
2024/01/04 11:49:47;;;;;;;10.65;3.60;;;;;;;;;;4984976;28;20049;-51
2024/01/04 11:52:16;;;;;;;10.98;3.42;;;;;;;;;;4984931;28;20029;-52
2024/01/04 11:54:42;;;;;;;19.20;4.47;;;;;;;;;;4984869;28;20322;-52
2024/01/04 11:57:18;;;;;;;17.15;4.10;;;;;;;;;;4985195;28;20023;-53
2024/01/04 11:59:44;;;;;;;10.25;3.38;;;;;;;;;;4984849;28;20183;-53
2024/01/04 12:02:19;;;;;;;12.20;3.78;;;;;;;;;;4985282;28;20029;-54
2024/01/04 12:04:45;;;;;;;8.70;3.88;;;;;;;;;;4984613;28;20314;-54
2024/01/04 12:07:12;;;;;;;9.20;4.50;;;;;;;;;;4985005;28;20094;-54
2024/01/04 12:09:39;;;;;;;14.80;4.22;;;;;;;;;;4984760;28;20030;-52
2024/01/04 12:12:07;;;;;;;12.30;6.65;;;;;;;;;;4984851;28;20214;-52
2024/01/04 12:14:35;;;;;;;14.25;7.55;;;;;;;;;;4984539;28;20027;-53
2024/01/04 12:17:01;;;;;;;15.93;6.82;;;;;;;;;;4984849;28;20023;-53
2024/01/04 12:19:28;;;;;;;14.32;6.70;;;;;;;;;;4989159;28;20034;-51
2024/01/04 12:21:55;;;;;;;24.50;5.70;;;;;;;;;;4986456;28;20058;-56
2024/01/04 12:24:22;;;;;;;15.43;5.30;;;;;;;;;;5002839;28;20065;-54
2024/01/04 12:26:49;;;;;;;13.10;4.88;;;;;;;;;;4988074;28;20207;-52
2024/01/04 12:29:16;;;;;;;10.18;4.35;;;;;;;;;;4984857;28;20093;-53
2024/01/04 12:31:46;;;;;;;11.75;4.10;;;;;;;;;;4996960;28;20018;-52
2024/01/04 12:34:13;;;;;;;19.33;9.32;;;;;;;;;;5005173;28;20026;-53
2024/01/04 12:36:39;;;;;;;32.65;18.15;;;;;;;;;;5007761;28;20305;-55
2024/01/04 12:39:10;;;;;;;27.42;10.63;;;;;;;;;;5007835;28;20129;-52
2024/01/04 12:41:37;;;;;;;18.73;8.77;;;;;;;;;;5007488;28;20029;-51
2024/01/04 12:44:07;;;;;;;19.42;8.85;;;;;;;;;;5007514;28;20101;-56
2024/01/04 12:46:34;;;;;;;16.75;8.68;;;;;;;;;;5007666;28;20018;-53
2024/01/04 12:49:08;;;;;;;13.38;6.85;;;;;;;;;;5012627;28;20080;-49
2024/01/04 12:51:37;;;;;;;10.65;5.93;;;;;;;;;;5026987;28;20298;-47
2024/01/04 12:54:04;;;;;;;14.65;6.32;;;;;;;;;;5027270;28;20305;-52
2024/01/04 12:56:31;;;;;;;9.77;4.85;;;;;;;;;;5026923;28;20026;-55
2024/01/04 12:59:01;;;;;;;10.95;4.47;;;;;;;;;;5027029;28;20089;-54
2024/01/04 13:01:31;;;;;;;9.18;4.10;;;;;;;;;;5026797;28;20025;-55
2024/01/04 13:03:59;;;;;;;10.73;3.80;;;;;;;;;;5026809;28;20053;-55
2024/01/04 13:06:25;;;;;;;11.20;4.22;;;;;;;;;;5026652;28;20312;-54
2024/01/04 13:08:52;;;;;;;12.85;4.50;;;;;;;;;;5026571;28;20056;-59
2024/01/04 13:11:19;;;;;;;15.52;4.07;;;;;;;;;;5026590;28;20045;-53
2024/01/04 13:13:45;;;;;;;13.20;4.13;;;;;;;;;;5026501;28;20022;-53
2024/01/04 13:16:13;;;;;;;7.43;3.47;;;;;;;;;;5026715;28;20021;-54
2024/01/04 13:18:40;;;;;;;32.78;5.00;;;;;;;;;;5026572;28;20225;-55
2024/01/04 13:21:07;;;;;;;22.80;4.93;;;;;;;;;;5026685;28;20024;-54
2024/01/04 13:23:33;;;;;;;26.75;5.30;;;;;;;;;;5026384;28;20092;-52
2024/01/04 13:26:00;;;;;;;43.22;6.53;;;;;;;;;;5026684;28;20030;-53
2024/01/04 13:28:27;;;;;;;66.10;8.90;;;;;;;;;;5026422;28;20101;-53
2024/01/04 13:30:54;;;;;;;45.97;7.85;;;;;;;;;;5026179;28;20032;-53
2024/01/04 13:33:21;;;;;;;34.90;7.00;;;;;;;;;;5008466;28;20114;-52
2024/01/04 13:35:47;;;;;;;57.03;8.52;;;;;;;;;;5026624;28;20025;-55
2024/01/04 13:38:14;;;;;;;46.75;7.55;;;;;;;;;;5026249;28;20336;-53
2024/01/04 13:40:41;;;;;;;40.38;6.70;;;;;;;;;;5025960;28;20030;-54
2024/01/04 13:43:07;;;;;;;37.88;6.05;;;;;;;;;;5025988;28;20033;-52
2024/01/04 13:45:34;;;;;;;29.27;6.00;;;;;;;;;;5026014;28;20117;-55
2024/01/04 13:48:00;;;;;;;24.38;5.32;;;;;;;;;;5025913;28;20021;-54
2024/01/04 13:50:29;;;;;;;25.58;6.15;;;;;;;;;;5026010;28;20085;-52
2024/01/04 13:52:55;;;;;;;20.35;5.13;;;;;;;;;;5026008;28;20025;-56
2024/01/04 13:55:22;;;;;;;23.90;5.68;;;;;;;;;;5025522;28;20018;-54
2024/01/04 13:57:48;;;;;;;27.63;5.13;;;;;;;;;;5025907;28;20081;-59
2024/01/04 14:00:15;;;;;;;15.13;4.93;;;;;;;;;;5025699;28;20018;-52
2024/01/04 14:02:42;;;;;;;10.95;4.47;;;;;;;;;;5026191;28;20044;-55
2024/01/04 14:05:09;;;;;;;6.90;4.00;;;;;;;;;;5025524;28;20032;-54
2024/01/04 14:07:36;;;;;;;10.88;4.00;;;;;;;;;;5025796;28;20022;-53
2024/01/04 14:10:03;;;;;;;8.88;4.03;;;;;;;;;;5001654;28;20019;-51
2024/01/04 14:12:30;;;;;;;9.73;4.07;;;;;;;;;;5006094;28;20089;-53
2024/01/04 14:14:57;;;;;;;12.90;4.03;;;;;;;;;;5005882;28;20027;-56
2024/01/04 14:17:23;;;;;;;6.70;3.78;;;;;;;;;;5008698;28;20041;-52
2024/01/04 14:19:50;;;;;;;9.05;3.95;;;;;;;;;;5006224;28;20029;-53
2024/01/04 14:22:16;;;;;;;8.75;3.13;;;;;;;;;;5011554;28;20366;-52
2024/01/04 14:24:43;;;;;;;9.27;3.47;;;;;;;;;;5016093;28;20234;-52
2024/01/04 14:27:09;;;;;;;9.73;3.42;;;;;;;;;;5025636;28;20302;-52
2024/01/04 14:29:36;;;;;;;9.13;3.70;;;;;;;;;;5025170;28;20026;-55
2024/01/04 14:32:03;;;;;;;5.80;3.47;;;;;;;;;;5025273;28;20032;-53
2024/01/04 14:34:30;;;;;;;7.80;3.45;;;;;;;;;;5017788;28;20068;-52
2024/01/04 14:36:56;;;;;;;6.65;3.55;;;;;;;;;;5005561;28;20033;-56